createdAt,value
2019-01-14T00:03:36.106Z,12.88
2019-01-14T00:08:43.931Z,12.94
2019-01-14T00:13:51.626Z,10.62
2019-01-14T00:18:59.384Z,6.85
2019-01-14T00:24:07.112Z,9.27
2019-01-14T00:29:14.812Z,12.61
2019-01-14T00:34:22.522Z,6.75
2019-01-14T00:39:30.232Z,7.54
2019-01-14T00:44:37.916Z,8.36
2019-01-14T00:49:45.701Z,11.03
2019-01-14T00:54:53.416Z,9.74
2019-01-14T01:00:01.173Z,10.48
2019-01-14T01:05:08.851Z,12.31
2019-01-14T01:10:16.640Z,11.69
2019-01-14T01:15:24.300Z,8.86
2019-01-14T01:20:32.029Z,8.92
2019-01-14T01:25:39.731Z,12.34
2019-01-14T01:30:47.563Z,9.76
2019-01-14T01:35:55.289Z,11.96
2019-01-14T01:41:02.988Z,10.05
2019-01-14T01:46:10.701Z,8.55
2019-01-14T01:51:18.504Z,6.17
2019-01-14T01:56:26.190Z,6.83
2019-01-14T02:01:33.980Z,9.11
2019-01-14T02:06:41.657Z,8.54
2019-01-14T02:11:49.383Z,7.47
2019-01-14T02:16:57.046Z,7.46
2019-01-14T02:22:04.809Z,5.90
2019-01-14T02:27:12.547Z,8.17
2019-01-14T02:32:20.298Z,10.18
2019-01-14T02:37:28.062Z,9.09
2019-01-14T02:42:35.886Z,8.58
2019-01-14T02:47:43.572Z,10.52
2019-01-14T02:52:51.374Z,9.80
2019-01-14T02:57:59.021Z,8.07
2019-01-14T03:03:06.793Z,10.33
2019-01-14T03:08:14.441Z,9.21
2019-01-14T03:13:22.223Z,10.56
2019-01-14T03:18:29.901Z,12.60
2019-01-14T03:23:37.700Z,12.03
2019-01-14T03:28:45.355Z,14.47
2019-01-14T03:33:53.077Z,13.18
2019-01-14T03:39:28.457Z,19.32
2019-01-14T03:44:36.201Z,19.14
2019-01-14T03:49:43.892Z,20.67
2019-01-14T03:54:51.604Z,24.56
2019-01-14T03:59:59.279Z,21.22
2019-01-14T04:05:07.042Z,20.27
2019-01-14T04:10:14.761Z,18.85
2019-01-14T04:15:22.557Z,10.21
2019-01-14T04:20:30.255Z,11.39
2019-01-14T04:25:38.058Z,9.08
2019-01-14T04:30:45.799Z,12.20
2019-01-14T04:35:53.560Z,16.73
2019-01-14T04:41:01.266Z,14.70
2019-01-14T04:46:09.012Z,12.92
2019-01-14T04:51:16.699Z,12.69
2019-01-14T04:56:24.407Z,11.91
2019-01-14T05:01:32.147Z,15.74
2019-01-14T05:06:39.961Z,11.32
2019-01-14T05:11:47.659Z,11.99
2019-01-14T05:16:55.499Z,16.58
2019-01-14T05:22:03.183Z,21.30
2019-01-14T05:27:10.948Z,11.37
2019-01-14T05:32:18.637Z,20.70
2019-01-14T05:37:26.483Z,15.68
2019-01-14T05:42:34.196Z,10.03
2019-01-14T05:47:42.011Z,17.48
2019-01-14T05:52:49.742Z,12.99
2019-01-14T05:57:57.482Z,15.04
2019-01-14T06:03:05.229Z,15.22
2019-01-14T06:08:13.011Z,16.70
2019-01-14T06:13:20.704Z,15.64
2019-01-14T06:18:28.467Z,12.23
2019-01-14T06:23:36.147Z,14.28
2019-01-14T06:28:43.899Z,10.85
2019-01-14T06:33:51.615Z,10.82
2019-01-14T06:38:59.437Z,15.29
2019-01-14T06:44:07.137Z,16.14
2019-01-14T06:49:14.915Z,12.69
2019-01-14T06:54:22.633Z,13.52
2019-01-14T06:59:30.493Z,12.09
2019-01-14T07:04:38.116Z,15.28
2019-01-14T07:09:45.885Z,17.31
2019-01-14T07:14:53.598Z,15.16
2019-01-14T07:20:01.365Z,18.93
2019-01-14T07:25:09.070Z,18.20
2019-01-14T07:30:16.829Z,19.55
2019-01-14T07:35:24.548Z,20.09
2019-01-14T07:40:32.325Z,15.48
2019-01-14T07:45:40.094Z,20.16
2019-01-14T07:50:47.880Z,14.22
2019-01-14T07:55:55.545Z,20.43
2019-01-14T08:01:03.284Z,12.91
2019-01-14T08:06:11.011Z,10.96
2019-01-14T08:11:18.737Z,11.53
2019-01-14T08:16:26.517Z,8.40
2019-01-14T08:21:34.337Z,7.69
2019-01-14T08:26:42.107Z,8.77
2019-01-14T08:31:49.802Z,9.61
2019-01-14T08:37:00.792Z,11.08
2019-01-14T08:42:04.841Z,10.71
2019-01-14T08:47:12.533Z,15.68
2019-01-14T08:52:20.342Z,12.81
2019-01-14T08:57:28.003Z,15.74
2019-01-14T09:02:35.811Z,16.87
2019-01-14T09:07:43.546Z,14.40
2019-01-14T09:12:51.360Z,14.84
2019-01-14T09:18:02.913Z,10.74
2019-01-14T09:23:06.331Z,14.76
2019-01-14T09:28:14.063Z,9.44
2019-01-14T09:33:21.826Z,11.88
2019-01-14T09:38:35.639Z,13.44
2019-01-14T09:43:36.930Z,12.01
2019-01-14T09:48:44.642Z,11.16
2019-01-14T09:53:52.419Z,14.76
2019-01-14T09:59:00.133Z,11.94
2019-01-14T10:04:07.934Z,11.57
2019-01-14T10:09:15.731Z,13.29
2019-01-14T10:14:23.497Z,8.42
2019-01-14T10:19:31.231Z,7.64
2019-01-14T10:24:39.014Z,13.70
2019-01-14T10:29:46.753Z,13.52
2019-01-14T10:34:54.609Z,12.63
2019-01-14T10:40:02.287Z,12.85
2019-01-14T10:45:10.064Z,12.80
2019-01-14T10:50:17.789Z,8.81
2019-01-14T10:55:25.626Z,7.85
2019-01-14T11:00:33.317Z,8.06
2019-01-14T11:05:41.144Z,7.38
2019-01-14T11:10:48.772Z,9.68
2019-01-14T11:15:56.533Z,7.15
2019-01-14T11:21:04.268Z,6.62
2019-01-14T11:26:12.061Z,8.19
2019-01-14T11:31:19.798Z,5.87
2019-01-14T11:36:27.632Z,4.35
2019-01-14T11:41:35.337Z,4.56
2019-01-14T11:46:43.114Z,5.46
2019-01-14T11:51:50.830Z,5.96
2019-01-14T11:56:58.571Z,5.97
2019-01-14T12:02:06.345Z,8.10
2019-01-14T12:07:14.099Z,6.14
2019-01-14T12:12:21.818Z,5.43
2019-01-14T12:17:29.659Z,7.18
2019-01-14T12:22:37.341Z,3.87
2019-01-14T12:27:45.096Z,6.84
2019-01-14T12:32:52.828Z,8.24
2019-01-14T12:38:00.589Z,7.49
2019-01-14T12:43:08.281Z,4.75
2019-01-14T12:48:15.999Z,4.03
2019-01-14T12:53:23.649Z,8.03
2019-01-14T12:58:31.367Z,5.79
2019-01-14T13:03:39.054Z,7.15
2019-01-14T13:08:46.866Z,4.37
2019-01-14T13:13:54.556Z,5.61
2019-01-14T13:19:02.438Z,6.49
2019-01-14T13:24:10.131Z,7.49
2019-01-14T13:29:17.910Z,6.60
2019-01-14T13:34:25.623Z,7.96
2019-01-14T13:39:34.126Z,5.66
2019-01-14T13:44:40.697Z,5.80
2019-01-14T13:49:48.883Z,5.57
2019-01-14T13:54:56.575Z,6.61
2019-01-14T14:00:04.443Z,3.99
2019-01-14T14:05:12.108Z,7.55
2019-01-14T14:10:19.997Z,5.52
2019-01-14T14:15:27.776Z,5.88
2019-01-14T14:20:35.516Z,6.81
2019-01-14T14:25:43.209Z,5.04
2019-01-14T14:30:51.066Z,5.96
2019-01-14T14:35:58.762Z,6.55
2019-01-14T14:41:06.521Z,7.21
2019-01-14T14:46:14.230Z,5.28
2019-01-14T14:51:22.007Z,6.06
2019-01-14T14:56:29.757Z,6.61
2019-01-14T15:01:37.603Z,5.69
2019-01-14T15:06:45.288Z,6.14
2019-01-14T15:11:53.048Z,4.72
2019-01-14T15:17:00.775Z,8.51
2019-01-14T15:22:08.525Z,7.19
2019-01-14T15:27:16.229Z,9.43
2019-01-14T15:32:23.975Z,4.97
2019-01-14T15:37:31.624Z,7.75
2019-01-14T15:42:39.373Z,6.38
2019-01-14T15:47:47.166Z,6.52
2019-01-14T15:52:54.959Z,7.22
2019-01-14T15:58:02.642Z,5.82
2019-01-14T16:03:10.410Z,7.19
2019-01-14T16:08:18.170Z,8.51
2019-01-14T16:13:25.897Z,7.84
2019-01-14T16:18:33.649Z,9.07
2019-01-14T16:23:41.444Z,7.95
2019-01-14T16:28:49.102Z,9.45
2019-01-14T16:33:56.845Z,9.57
2019-01-14T16:39:04.621Z,8.66
2019-01-14T16:44:12.483Z,6.96
2019-01-14T16:49:20.151Z,4.97
2019-01-14T16:54:27.907Z,5.53
2019-01-14T16:59:35.639Z,7.77
2019-01-14T17:04:43.390Z,8.21
2019-01-14T17:09:51.133Z,10.00
2019-01-14T17:14:58.894Z,8.60
2019-01-14T17:20:06.747Z,9.85
2019-01-14T17:25:14.659Z,8.31
2019-01-14T17:30:22.384Z,11.98
2019-01-14T17:35:30.117Z,12.87
2019-01-14T17:40:37.780Z,10.63
2019-01-14T17:45:45.499Z,13.74
2019-01-14T17:50:53.153Z,14.21
2019-01-14T17:56:01.085Z,11.25
2019-01-14T18:01:08.651Z,8.80
2019-01-14T18:06:16.477Z,8.73
2019-01-14T18:11:24.512Z,11.27
2019-01-14T18:16:32.054Z,15.24
2019-01-14T18:21:39.851Z,11.68
2019-01-14T18:26:47.633Z,13.25
2019-01-14T18:31:55.345Z,13.31
2019-01-14T18:37:03.072Z,10.67
2019-01-14T18:42:10.753Z,13.04
2019-01-14T18:47:18.549Z,11.33
2019-01-14T18:52:26.205Z,12.53
2019-01-14T18:57:33.941Z,15.07
2019-01-14T19:02:41.599Z,13.48
2019-01-14T19:07:49.364Z,11.38
2019-01-14T19:12:57.049Z,13.34
2019-01-14T19:18:04.800Z,12.35
2019-01-14T19:23:12.462Z,11.36
2019-01-14T19:28:20.293Z,9.69
2019-01-14T19:33:27.993Z,9.50
2019-01-14T19:38:35.730Z,11.84
2019-01-14T19:43:43.523Z,13.85
2019-01-14T19:48:51.316Z,13.39
2019-01-14T19:53:59.018Z,13.10
2019-01-14T19:59:06.779Z,12.60
2019-01-14T20:04:14.438Z,10.54
2019-01-14T20:09:22.151Z,11.80
2019-01-14T20:14:29.835Z,10.38
2019-01-14T20:19:37.607Z,8.65
2019-01-14T20:24:45.331Z,10.65
2019-01-14T20:29:53.145Z,11.51
2019-01-14T20:35:03.345Z,11.60
2019-01-14T20:40:01.179Z,13.76
2019-01-14T20:45:08.840Z,11.69
2019-01-14T20:50:16.645Z,12.64
2019-01-14T20:55:24.329Z,11.14
2019-01-14T21:00:32.101Z,13.95
2019-01-14T21:05:39.854Z,12.51
2019-01-14T21:10:47.646Z,12.84
2019-01-14T21:16:02.571Z,10.04
2019-01-14T21:21:02.674Z,10.67
2019-01-14T21:26:10.353Z,11.09
2019-01-14T21:31:18.133Z,11.45
2019-01-14T21:36:25.858Z,11.33
2019-01-14T21:41:33.659Z,9.49
2019-01-14T21:46:41.334Z,12.62
2019-01-14T21:51:49.126Z,14.18
2019-01-14T21:56:56.801Z,13.62
2019-01-14T22:02:04.602Z,12.37
2019-01-14T22:07:12.307Z,11.51
2019-01-14T22:12:20.075Z,12.08
2019-01-14T22:17:27.763Z,10.18
2019-01-14T22:22:35.524Z,11.32
2019-01-14T22:27:43.232Z,12.81
2019-01-14T22:32:51.006Z,12.18
2019-01-14T22:37:58.720Z,9.39
2019-01-14T22:43:06.453Z,13.67
2019-01-14T22:48:14.205Z,11.69
2019-01-14T22:53:22.007Z,12.03
2019-01-14T22:58:29.761Z,11.43
2019-01-14T23:03:37.509Z,10.77
2019-01-14T23:08:45.231Z,11.21
2019-01-14T23:13:52.996Z,15.46
2019-01-14T23:19:00.676Z,12.20
2019-01-14T23:24:08.502Z,15.15
2019-01-14T23:29:16.264Z,12.39
2019-01-14T23:34:26.604Z,16.54
2019-01-14T23:39:24.443Z,17.13
2019-01-14T23:44:32.178Z,16.41
2019-01-14T23:49:41.137Z,18.97
2019-01-14T23:54:48.829Z,20.02
2019-01-14T23:59:56.561Z,17.69
